Time;durP1;ratioP1;P1;durP2;ratioP2;P2;SDS_P1;SDS_P2;PMS_P1;PMS_P2;Temp;Humidity;BMP_temperature;BMP_pressure;BME280_temperature;BME280_humidity;BME280_pressure;Samples;Min_cycle;Max_cycle;Signal;HPM_P1;HPM_P2
2022/06/16 00:00:37;;;;;;;2.80;1.10;;;;;;;19.96;100.00;101333.19;5048450;28;20100;-86
2022/06/16 00:03:06;;;;;;;3.05;1.27;;;;;;;19.92;100.00;101339.66;5045982;28;20056;-86
2022/06/16 00:05:35;;;;;;;4.13;1.40;;;;;;;19.82;100.00;101341.25;5053673;28;20055;-86
2022/06/16 00:08:03;;;;;;;6.45;1.70;;;;;;;19.58;100.00;101346.34;5053094;28;20599;-86
2022/06/16 00:10:31;;;;;;;5.03;1.40;;;;;;;19.49;100.00;101335.34;5051684;28;20494;-86
2022/06/16 00:12:58;;;;;;;5.43;1.40;;;;;;;19.58;100.00;101333.06;5052871;28;20132;-86
2022/06/16 00:15:27;;;;;;;3.40;1.30;;;;;;;19.80;100.00;101343.16;5052398;28;20045;-86
2022/06/16 00:17:56;;;;;;;5.18;1.40;;;;;;;19.92;100.00;101350.31;5063257;28;20107;-86
2022/06/16 00:20:24;;;;;;;2.95;1.10;;;;;;;20.10;100.00;101340.22;5051447;28;20052;-86
2022/06/16 00:22:51;;;;;;;3.80;1.35;;;;;;;19.68;100.00;101307.59;5053136;28;20406;-86
2022/06/16 00:25:18;;;;;;;3.60;1.30;;;;;;;19.96;100.00;101314.56;5053050;28;20430;-86
2022/06/16 00:27:45;;;;;;;3.00;1.10;;;;;;;19.98;100.00;101349.88;5051554;28;20049;-86
2022/06/16 00:30:12;;;;;;;4.82;1.33;;;;;;;19.76;100.00;101317.72;5050688;28;20049;-86
2022/06/16 00:32:41;;;;;;;5.78;1.40;;;;;;;19.83;100.00;101314.56;5050929;28;20051;-86
2022/06/16 00:35:10;;;;;;;3.15;1.17;;;;;;;19.62;100.00;101321.25;5069840;28;20052;-86
2022/06/16 00:37:37;;;;;;;4.00;1.30;;;;;;;19.77;100.00;101354.81;5054007;28;20055;-86
2022/06/16 00:40:04;;;;;;;6.20;1.42;;;;;;;19.91;100.00;101328.16;5068862;28;20406;-85
2022/06/16 00:42:31;;;;;;;2.70;1.10;;;;;;;19.74;100.00;101331.09;5052790;28;20053;-85
2022/06/16 00:44:58;;;;;;;3.80;1.20;;;;;;;19.80;100.00;101346.66;5052567;28;20057;-86
2022/06/16 00:47:28;;;;;;;4.03;1.30;;;;;;;20.10;100.00;101349.03;5052112;28;20049;-84
2022/06/16 00:49:59;;;;;;;2.60;1.08;;;;;;;20.13;100.00;101321.38;5068420;28;20418;-85
2022/06/16 00:52:30;;;;;;;3.72;1.25;;;;;;;20.09;100.00;101341.16;5053697;28;20055;-85
2022/06/16 00:55:10;;;;;;;4.20;1.25;;;;;;;19.77;100.00;101324.75;5039434;28;20124;-85
2022/06/16 00:57:41;;;;;;;3.17;1.02;;;;;;;20.05;100.00;101345.84;5038326;28;20045;-85
2022/06/16 01:00:34;;;;;;;3.20;1.10;;;;;;;20.01;100.00;101347.00;5050143;28;20049;-85
2022/06/16 01:03:00;;;;;;;4.00;1.33;;;;;;;19.25;100.00;101332.50;5050460;28;20091;-85
2022/06/16 01:05:26;;;;;;;3.65;1.13;;;;;;;19.41;100.00;101279.25;5048859;28;20078;-86
2022/06/16 01:07:55;;;;;;;2.92;1.25;;;;;;;19.42;100.00;101290.72;5052618;28;20057;-85
2022/06/16 01:10:26;;;;;;;4.95;1.33;;;;;;;19.33;100.00;101281.56;5051702;28;20132;-86
2022/06/16 01:13:42;;;;;;;3.13;1.27;;;;;;;19.73;100.00;101340.88;5046028;28;20049;-86
2022/06/16 01:16:21;;;;;;;3.58;1.30;;;;;;;19.69;100.00;101363.28;5041031;28;20129;-86
2022/06/16 01:19:25;;;;;;;3.90;1.20;;;;;;;19.76;100.00;101366.41;5039100;28;20055;-86
2022/06/16 01:22:06;;;;;;;;;;;;;;;19.64;100.00;101370.69;5050625;28;20041;-86
2022/06/16 01:24:39;;;;;;;4.65;1.30;;;;;;;19.34;100.00;101363.78;5069471;28;20380;-86
2022/06/16 01:27:34;;;;;;;4.45;1.40;;;;;;;19.51;100.00;101370.66;5053551;28;20135;-86
2022/06/16 01:30:14;;;;;;;4.30;1.30;;;;;;;18.70;100.00;101306.81;5050415;28;20049;-86
2022/06/16 01:32:40;;;;;;;5.40;1.48;;;;;;;19.10;100.00;101368.00;5038132;28;20501;-86
2022/06/16 01:35:26;;;;;;;4.20;1.45;;;;;;;19.42;100.00;101379.19;5053124;28;20054;-86
2022/06/16 01:38:12;;;;;;;3.67;1.30;;;;;;;19.40;100.00;101375.78;5053276;28;20142;-86
2022/06/16 01:40:51;;;;;;;4.88;1.40;;;;;;;19.07;100.00;101345.16;5051233;28;20113;-86
2022/06/16 01:43:42;;;;;;;3.90;1.33;;;;;;;19.03;100.00;101378.13;5043433;28;20402;-86
2022/06/16 01:46:34;;;;;;;6.30;1.40;;;;;;;18.83;100.00;101328.16;5051603;28;20056;-86
2022/06/16 01:49:12;;;;;;;3.65;1.30;;;;;;;19.39;100.00;101371.44;5051937;28;20049;-87
2022/06/16 01:51:49;;;;;;;5.78;1.50;;;;;;;19.40;100.00;101372.28;5048600;28;20471;-86
2022/06/16 01:54:23;;;;;;;6.43;1.80;;;;;;;19.04;100.00;101368.41;5052200;28;20048;-86
2022/06/16 01:57:07;;;;;;;2.55;1.20;;;;;;;19.33;100.00;101370.00;5052014;28;20124;-86
2022/06/16 01:59:40;;;;;;;6.18;1.50;;;;;;;18.97;100.00;101367.91;5036866;28;20057;-86
2022/06/16 02:02:15;;;;;;;5.07;1.60;;;;;;;18.74;100.00;101310.97;5051972;28;20071;-85
2022/06/16 02:04:55;;;;;;;4.85;1.50;;;;;;;18.76;100.00;101341.75;5047559;28;20050;-86
2022/06/16 02:07:38;;;;;;;3.92;1.40;;;;;;;19.10;100.00;101350.25;5067717;28;20394;-86
2022/06/16 02:10:12;;;;;;;2.85;1.10;;;;;;;19.48;100.00;101340.78;5049669;28;20045;-85
2022/06/16 02:12:57;;;;;;;5.55;1.48;;;;;;;19.10;100.00;101309.59;5044433;28;20089;-86
2022/06/16 02:15:24;;;;;;;3.70;1.30;;;;;;;19.37;100.00;101354.78;5052588;28;20052;-86
2022/06/16 02:17:55;;;;;;;3.55;1.20;;;;;;;18.84;100.00;101290.03;5051440;28;20055;-86
2022/06/16 02:20:27;;;;;;;4.78;1.60;;;;;;;18.94;100.00;101307.91;5049914;28;20051;-86
2022/06/16 02:22:54;;;;;;;5.68;1.40;;;;;;;19.22;100.00;101331.84;5052451;28;20061;-82
2022/06/16 02:25:21;;;;;;;4.28;1.35;;;;;;;19.16;100.00;101344.56;5050620;28;20052;-87
2022/06/16 02:27:47;;;;;;;4.05;1.30;;;;;;;19.04;100.00;101334.75;5067200;28;20068;-86
2022/06/16 02:30:15;;;;;;;3.85;1.50;;;;;;;19.22;100.00;101339.81;5040836;28;20400;-85
2022/06/16 02:33:23;;;;;;;3.90;1.38;;;;;;;19.29;100.00;101360.56;5051232;28;20048;-85
2022/06/16 02:35:58;;;;;;;5.07;1.33;;;;;;;19.17;100.00;101358.69;5018060;28;20142;-86
2022/06/16 02:39:02;;;;;;;3.90;1.38;;;;;;;19.16;100.00;101351.69;5051216;28;20045;-86
2022/06/16 02:42:00;;;;;;;3.75;1.40;;;;;;;19.00;100.00;101354.47;5045187;28;20044;-85
2022/06/16 02:44:38;;;;;;;4.43;1.42;;;;;;;19.10;100.00;101357.38;5052472;28;20049;-85
2022/06/16 02:47:16;;;;;;;5.25;1.60;;;;;;;18.85;100.00;101363.38;5037480;28;20049;-86
2022/06/16 02:50:01;;;;;;;3.33;1.20;;;;;;;19.03;100.00;101369.34;5050802;28;20470;-86
2022/06/16 02:52:39;;;;;;;3.55;1.20;;;;;;;18.65;100.00;101314.22;5055537;28;20052;-86
2022/06/16 02:55:31;;;;;;;4.10;1.67;;;;;;;18.55;100.00;101308.59;5051958;28;20125;-86
2022/06/16 02:58:00;;;;;;;6.22;1.30;;;;;;;18.72;100.00;101366.75;5064269;28;20041;-86
2022/06/16 03:00:33;;;;;;;4.38;1.23;;;;;;;18.73;100.00;101357.00;5053989;28;20064;-86
2022/06/16 03:03:19;;;;;;;3.88;1.30;;;;;;;18.71;100.00;101332.38;5051597;28;20415;-86
2022/06/16 03:05:50;;;;;;;3.55;1.38;;;;;;;18.40;100.00;101327.16;5043232;28;20796;-87
2022/06/16 03:08:17;;;;;;;4.47;1.50;;;;;;;18.39;100.00;101336.06;5056104;28;20049;-87
2022/06/16 03:10:53;;;;;;;4.15;1.52;;;;;;;18.52;100.00;101322.94;5054789;28;20045;-86
2022/06/16 03:13:29;;;;;;;5.22;1.55;;;;;;;18.60;100.00;101349.81;5054375;28;20053;-87
2022/06/16 03:15:58;;;;;;;4.20;1.40;;;;;;;18.60;100.00;101356.91;5054855;28;20558;-87
2022/06/16 03:18:26;;;;;;;4.55;1.50;;;;;;;18.83;100.00;101359.97;5053943;28;20052;-86
2022/06/16 03:20:53;;;;;;;4.60;1.67;;;;;;;18.37;100.00;101302.66;5042172;28;20045;-88
2022/06/16 03:23:20;;;;;;;4.75;1.40;;;;;;;18.85;100.00;101358.91;5054316;28;20070;-86
2022/06/16 03:25:47;;;;;;;7.15;1.63;;;;;;;18.44;100.00;101319.03;5054811;28;20044;-86
2022/06/16 03:28:15;;;;;;;4.25;1.40;;;;;;;18.80;100.00;101345.06;5055078;28;20045;-86
2022/06/16 03:30:42;;;;;;;3.58;1.30;;;;;;;18.81;100.00;101346.78;5053820;28;20072;-86
2022/06/16 03:33:11;;;;;;;4.45;1.35;;;;;;;18.90;100.00;101359.50;5054458;28;20049;-86
2022/06/16 03:35:39;;;;;;;3.78;1.23;;;;;;;18.87;100.00;101330.50;5040853;28;20055;-86
2022/06/16 03:38:20;;;;;;;4.18;1.42;;;;;;;18.85;100.00;101323.59;5054232;28;20040;-86
2022/06/16 03:40:47;;;;;;;3.08;1.23;;;;;;;18.85;100.00;101356.25;5053843;28;20044;-86
2022/06/16 03:43:14;;;;;;;4.85;1.40;;;;;;;18.80;100.00;101321.19;5053579;28;20048;-87
2022/06/16 03:45:41;;;;;;;5.55;1.50;;;;;;;19.03;100.00;101351.59;5054546;28;20082;-87
2022/06/16 03:48:08;;;;;;;6.75;1.40;;;;;;;18.77;100.00;101355.88;5039891;28;20063;-87
2022/06/16 03:50:35;;;;;;;5.30;1.15;;;;;;;18.72;100.00;101355.31;5052793;28;20168;-87
2022/06/16 03:53:03;;;;;;;3.85;1.42;;;;;;;18.47;100.00;101314.41;5053307;28;20525;-86
2022/06/16 03:55:30;;;;;;;4.05;1.25;;;;;;;18.37;100.00;101368.94;5054120;28;20127;-86
2022/06/16 03:57:58;;;;;;;5.50;1.50;;;;;;;18.41;100.00;101341.28;5052728;28;20047;-87
2022/06/16 04:00:25;;;;;;;3.33;1.17;;;;;;;18.82;100.00;101358.25;5037148;28;20041;-87
2022/06/16 04:03:59;;;;;;;4.15;1.40;;;;;;;18.73;100.00;101319.88;5055204;28;20388;-87
2022/06/16 04:05:40;;;;;;;5.22;1.35;;;;;;;18.90;100.00;101364.78;5055196;28;20069;-86
2022/06/16 04:08:09;;;;;;;3.30;1.20;;;;;;;18.29;100.00;101323.47;5053890;28;20045;-86
2022/06/16 04:10:36;;;;;;;4.63;1.83;;;;;;;18.10;100.00;101342.28;5048224;28;20506;-86
2022/06/16 04:13:03;;;;;;;5.82;1.75;;;;;;;18.27;100.00;101373.06;5035133;28;20494;-87
2022/06/16 04:15:30;;;;;;;9.63;2.20;;;;;;;17.94;100.00;101385.56;5067276;28;20053;-86
2022/06/16 04:17:57;;;;;;;6.57;1.90;;;;;;;17.85;100.00;101341.06;5053248;28;20056;-86
2022/06/16 04:20:24;;;;;;;4.43;1.67;;;;;;;17.86;100.00;101329.53;5051720;28;20059;-86
2022/06/16 04:22:51;;;;;;;4.22;1.60;;;;;;;17.86;100.00;101336.63;5052994;28;20051;-87
2022/06/16 04:25:20;;;;;;;5.70;1.98;;;;;;;17.75;100.00;101331.94;5039490;28;20400;-86
2022/06/16 04:27:48;;;;;;;5.05;1.63;;;;;;;18.10;100.00;101329.88;5054506;28;20399;-86
2022/06/16 04:30:16;;;;;;;3.63;1.40;;;;;;;18.17;100.00;101333.88;5067769;28;20407;-86
2022/06/16 04:32:44;;;;;;;5.00;1.58;;;;;;;18.71;100.00;101367.69;5053098;28;20051;-86
2022/06/16 04:35:11;;;;;;;4.18;1.70;;;;;;;18.33;100.00;101355.00;5040734;28;20049;-86
2022/06/16 04:37:37;;;;;;;7.47;1.92;;;;;;;18.05;100.00;101333.75;5039055;28;20132;-86
2022/06/16 04:40:05;;;;;;;3.78;1.40;;;;;;;18.65;100.00;101383.16;5052042;28;20053;-85
2022/06/16 04:42:32;;;;;;;3.60;1.42;;;;;;;18.90;100.00;101363.94;5062858;28;20041;-86
2022/06/16 04:44:58;;;;;;;4.60;1.50;;;;;;;18.58;100.00;101364.97;5054083;28;20059;-86
2022/06/16 04:47:25;;;;;;;4.43;1.60;;;;;;;18.48;100.00;101332.00;5053647;28;20118;-86
2022/06/16 04:49:52;;;;;;;5.68;1.40;;;;;;;18.88;100.00;101371.16;5052241;28;20430;-86
2022/06/16 04:52:19;;;;;;;6.43;1.63;;;;;;;19.02;100.00;101399.50;5052425;28;20140;-87
2022/06/16 04:54:47;;;;;;;6.32;1.90;;;;;;;18.63;100.00;101369.13;5052678;28;20040;-86
2022/06/16 04:57:22;;;;;;;5.35;1.70;;;;;;;18.77;100.00;101372.66;5053445;28;20049;-87
2022/06/16 04:59:48;;;;;;;3.92;1.45;;;;;;;18.85;100.00;101374.00;5052981;28;20410;-87
2022/06/16 05:02:35;;;;;;;5.22;1.65;;;;;;;18.94;100.00;101363.66;5057538;28;20055;-87
2022/06/16 05:05:02;;;;;;;8.30;1.60;;;;;;;19.27;100.00;101378.38;5052170;28;20053;-87
2022/06/16 05:07:29;;;;;;;4.53;1.58;;;;;;;19.35;100.00;101381.41;5052269;28;20124;-86
2022/06/16 05:09:56;;;;;;;5.18;1.60;;;;;;;19.10;100.00;101350.25;5052474;28;20048;-87
2022/06/16 05:12:23;;;;;;;7.57;2.00;;;;;;;19.03;100.00;101382.59;5052860;28;20410;-86
2022/06/16 05:14:50;;;;;;;4.35;1.60;;;;;;;19.46;100.00;101404.63;5054169;28;20127;-87
2022/06/16 05:17:17;;;;;;;3.47;1.38;;;;;;;19.25;100.00;101371.50;5053528;28;20052;-86
2022/06/16 05:19:44;;;;;;;5.68;1.52;;;;;;;18.94;100.00;101382.22;5053682;28;20053;-85
2022/06/16 05:22:11;;;;;;;6.63;1.48;;;;;;;20.26;100.00;101401.19;5051014;28;20045;-86
2022/06/16 05:24:38;;;;;;;4.15;1.65;;;;;;;20.78;100.00;101386.09;5052840;28;20056;-86
2022/06/16 05:27:06;;;;;;;5.28;1.48;;;;;;;21.07;100.00;101351.22;5052307;28;20049;-86
2022/06/16 05:29:33;;;;;;;5.25;1.45;;;;;;;21.33;100.00;101395.44;5052753;28;20059;-87
2022/06/16 05:32:00;;;;;;;3.72;1.40;;;;;;;20.90;100.00;101369.25;5050542;28;20419;-86
2022/06/16 05:34:27;;;;;;;5.05;1.40;;;;;;;20.14;100.00;101340.88;5052106;28;20041;-86
2022/06/16 05:36:54;;;;;;;3.85;1.20;;;;;;;20.54;100.00;101354.91;5052521;28;20048;-86
2022/06/16 05:39:20;;;;;;;3.88;1.30;;;;;;;20.57;100.00;101365.31;5066826;28;20059;-86
2022/06/16 05:41:47;;;;;;;3.50;1.00;;;;;;;20.87;100.00;101390.78;5051044;28;20045;-86
2022/06/16 05:44:14;;;;;;;2.90;1.00;;;;;;;20.33;100.00;101361.69;5051538;28;20138;-86
2022/06/16 05:46:41;;;;;;;5.82;1.30;;;;;;;19.92;100.00;101368.91;5037678;28;20047;-86
2022/06/16 05:49:15;;;;;;;4.47;1.48;;;;;;;19.85;100.00;101410.97;5052581;28;20049;-85
2022/06/16 05:51:42;;;;;;;4.38;1.20;;;;;;;20.10;100.00;101383.59;5042085;28;20041;-86
2022/06/16 05:54:09;;;;;;;3.35;1.17;;;;;;;20.03;100.00;101384.13;5052777;28;20045;-85
2022/06/16 05:56:36;;;;;;;3.10;1.23;;;;;;;20.15;100.00;101390.41;5066799;28;20425;-87
2022/06/16 05:59:03;;;;;;;4.60;1.38;;;;;;;21.23;100.00;101358.00;5043043;28;20069;-86
2022/06/16 06:01:36;;;;;;;3.35;1.15;;;;;;;23.24;93.86;101404.97;5044275;28;20114;-86
2022/06/16 06:04:04;;;;;;;5.90;1.60;;;;;;;23.23;89.79;101415.78;5050759;28;20126;-84
2022/06/16 06:06:30;;;;;;;3.63;1.13;;;;;;;23.09;84.00;101368.84;5051196;28;20056;-84
2022/06/16 06:17:20;;;;;;;4.60;1.20;;;;;;;22.51;90.54;101417.81;5038131;28;20840;-85
2022/06/16 06:19:47;;;;;;;2.05;0.80;;;;;;;22.97;92.02;101420.53;5050643;28;20384;-85
2022/06/16 06:22:19;;;;;;;2.85;0.90;;;;;;;22.95;91.16;101434.00;5048816;28;20048;-87
2022/06/16 06:24:54;;;;;;;1.88;0.77;;;;;;;23.16;88.18;101431.47;5052090;28;20415;-87
2022/06/16 06:27:26;;;;;;;2.70;1.05;;;;;;;22.48;88.91;101436.72;5046812;28;20403;-85
2022/06/16 06:29:59;;;;;;;0.85;0.60;;;;;;;22.14;87.91;101379.75;5044960;28;20053;-87
2022/06/16 06:32:27;;;;;;;1.83;0.75;;;;;;;23.84;87.61;101420.66;5066323;28;20128;-87
2022/06/16 06:34:54;;;;;;;2.38;0.80;;;;;;;23.18;79.79;101359.19;5050722;28;20048;-85
2022/06/16 06:37:24;;;;;;;1.60;0.60;;;;;;;23.59;78.55;101411.94;5050315;28;20055;-87
2022/06/16 06:39:51;;;;;;;2.65;0.80;;;;;;;23.59;75.18;101401.25;5066982;28;20055;-87
2022/06/16 06:42:19;;;;;;;2.72;0.80;;;;;;;23.24;76.42;101394.28;5046808;28;20052;-87
2022/06/16 06:44:47;;;;;;;2.53;0.73;;;;;;;22.95;79.68;101442.00;5065509;28;20521;-87
2022/06/16 06:47:23;;;;;;;2.58;0.77;;;;;;;23.41;78.20;101411.63;5050357;28;20490;-87
2022/06/16 06:49:51;;;;;;;2.25;0.85;;;;;;;24.86;71.80;101437.00;5037667;28;20047;-87
2022/06/16 06:52:18;;;;;;;3.90;1.00;;;;;;;25.21;69.74;101395.50;5041160;28;20052;-87
2022/06/16 06:54:46;;;;;;;2.40;0.60;;;;;;;25.50;66.15;101429.63;5047650;28;20055;-87
2022/06/16 06:57:17;;;;;;;3.47;0.80;;;;;;;26.18;66.00;101437.69;5051142;28;20404;-87
2022/06/16 06:59:44;;;;;;;0.63;0.40;;;;;;;26.24;61.16;101417.50;5067043;28;20131;-86
2022/06/16 07:02:12;;;;;;;0.70;0.40;;;;;;;26.68;62.17;101437.50;5054556;28;20048;-87
2022/06/16 07:04:41;;;;;;;1.50;0.40;;;;;;;26.82;57.57;101411.16;5048026;28;20129;-86
2022/06/16 07:07:14;;;;;;;1.52;0.40;;;;;;;27.33;58.27;101438.53;5038204;28;20482;-87
2022/06/16 07:09:41;;;;;;;1.17;0.45;;;;;;;25.67;59.60;101422.69;5043868;28;20045;-87
2022/06/16 07:12:13;;;;;;;1.08;0.38;;;;;;;25.55;58.71;101413.94;5049442;28;20053;-87
2022/06/16 07:14:46;;;;;;;1.35;0.50;;;;;;;25.19;61.27;101430.47;5051817;28;20391;-88
2022/06/16 07:17:18;;;;;;;0.97;0.47;;;;;;;25.16;64.14;101425.41;5046601;28;20045;-88
2022/06/16 07:19:45;;;;;;;0.45;0.30;;;;;;;24.18;66.94;101441.88;5049072;28;20049;-87
2022/06/16 07:22:12;;;;;;;1.75;0.50;;;;;;;24.07;69.44;101424.06;5045750;28;20041;-83
2022/06/16 07:24:39;;;;;;;1.75;0.50;;;;;;;24.71;66.50;101404.34;5041008;28;20048;-84
2022/06/16 07:27:08;;;;;;;2.90;0.70;;;;;;;23.63;68.27;101400.00;5051682;28;20063;-85
2022/06/16 07:29:35;;;;;;;2.85;0.52;;;;;;;24.38;69.38;101437.50;5054439;28;20049;-90
2022/06/16 07:32:10;;;;;;;1.52;0.50;;;;;;;25.49;64.48;101418.03;5053361;28;20045;-89
2022/06/16 07:34:37;;;;;;;2.70;0.60;;;;;;;25.33;66.80;101428.44;5056008;28;20045;-88
2022/06/16 07:37:04;;;;;;;1.33;0.60;;;;;;;24.64;68.26;101403.19;5054424;28;20403;-89
2022/06/16 07:39:31;;;;;;;2.90;0.60;;;;;;;24.85;68.43;101400.47;5055795;28;20491;-89
2022/06/16 07:41:58;;;;;;;1.17;0.50;;;;;;;24.92;64.20;101376.69;5055030;28;20052;-88
2022/06/16 07:44:25;;;;;;;2.38;0.50;;;;;;;24.41;66.66;101413.16;5048781;28;20048;-83
2022/06/16 07:46:52;;;;;;;2.33;0.80;;;;;;;24.62;65.09;101414.03;5042741;28;20510;-87
2022/06/16 07:49:25;;;;;;;2.25;0.73;;;;;;;24.25;66.08;101409.13;5051425;28;20041;-85
2022/06/16 07:51:54;;;;;;;1.70;0.40;;;;;;;25.09;64.96;101394.78;5048330;28;20049;-86
2022/06/16 07:54:23;;;;;;;0.60;0.40;;;;;;;26.20;66.07;101394.63;5045416;28;20044;-87
2022/06/16 07:57:11;;;;;;;2.92;0.43;;;;;;;26.42;60.54;101402.34;5048672;28;20064;-87
2022/06/16 07:59:50;;;;;;;0.35;0.35;;;;;;;26.53;59.40;101383.38;5049163;28;20155;-87
2022/06/16 08:02:17;;;;;;;1.80;0.52;;;;;;;26.99;58.52;101379.97;5052175;28;20107;-87
2022/06/16 08:04:45;;;;;;;0.88;0.47;;;;;;;26.46;59.94;101373.38;5049464;28;20041;-86
2022/06/16 08:07:12;;;;;;;0.98;0.38;;;;;;;25.46;60.51;101378.09;5047777;28;20051;-87
2022/06/16 08:09:39;;;;;;;0.70;0.30;;;;;;;25.51;61.79;101350.88;5067430;28;20045;-89
2022/06/16 08:12:08;;;;;;;1.92;0.50;;;;;;;25.18;61.37;101399.31;5039757;28;20143;-89
2022/06/16 08:14:42;;;;;;;0.73;0.30;;;;;;;25.18;65.35;101366.31;5049060;28;20558;-89
2022/06/16 08:17:14;;;;;;;0.47;0.40;;;;;;;25.61;60.88;101399.16;5052320;28;20605;-89
2022/06/16 08:19:41;;;;;;;0.70;0.35;;;;;;;26.03;63.40;101383.63;5058738;28;20045;-88
2022/06/16 08:22:08;;;;;;;1.10;0.43;;;;;;;26.61;60.46;101376.41;5051276;28;20051;-84
2022/06/16 08:24:36;;;;;;;1.20;0.40;;;;;;;26.66;59.00;101382.22;5049487;28;20045;-87
2022/06/16 08:27:04;;;;;;;0.30;0.30;;;;;;;27.47;56.62;101346.56;5043318;28;20409;-87
2022/06/16 08:29:32;;;;;;;1.30;0.45;;;;;;;26.20;57.49;101367.78;5052802;28;20124;-87
2022/06/16 08:31:59;;;;;;;0.68;0.50;;;;;;;27.08;59.04;101369.16;5051455;28;20406;-88
2022/06/16 08:34:26;;;;;;;2.58;0.57;;;;;;;27.45;54.67;101354.78;5069124;28;20543;-87
2022/06/16 08:36:53;;;;;;;1.45;0.50;;;;;;;26.73;56.71;101377.97;5053249;28;20057;-88
2022/06/16 08:39:19;;;;;;;2.85;0.73;;;;;;;25.61;58.81;101357.09;5051741;28;20044;-87
2022/06/16 08:41:55;;;;;;;1.30;0.50;;;;;;;25.75;57.65;101359.34;5067756;28;20467;-87
2022/06/16 08:44:36;;;;;;;5.03;0.60;;;;;;;26.44;60.58;101386.09;5050482;28;20403;-87
2022/06/16 08:47:14;;;;;;;7.82;1.30;;;;;;;26.08;63.42;101394.78;5068063;28;20049;-87
2022/06/16 08:49:54;;;;;;;2.83;0.90;;;;;;;26.52;63.23;101391.56;5056175;28;20045;-87
2022/06/16 08:52:40;;;;;;;4.50;1.40;;;;;;;25.26;65.41;101371.84;5048584;28;20506;-87
2022/06/16 08:55:16;;;;;;;3.53;1.02;;;;;;;24.40;68.62;101403.44;5051758;28;20063;-87
2022/06/16 08:57:51;;;;;;;4.40;1.33;;;;;;;23.91;71.70;101413.81;5052097;28;20131;-87
2022/06/16 09:00:28;;;;;;;5.80;1.02;;;;;;;23.76;73.48;101402.53;5034624;28;20497;-87
2022/06/16 09:03:19;;;;;;;4.00;1.05;;;;;;;24.24;72.62;101415.47;5045469;28;20057;-87
2022/06/16 09:06:07;;;;;;;3.35;1.02;;;;;;;23.58;67.47;101399.53;5044340;28;20045;-87
2022/06/16 09:08:49;;;;;;;3.58;0.90;;;;;;;23.75;70.37;101416.03;5050564;28;20065;-87
2022/06/16 09:11:32;;;;;;;6.35;1.40;;;;;;;22.87;73.07;101425.72;5051944;28;20047;-87
2022/06/16 09:14:20;;;;;;;3.53;0.90;;;;;;;23.37;72.70;101420.84;5047980;28;20063;-86
2022/06/16 09:17:01;;;;;;;7.03;1.38;;;;;;;22.75;77.71;101372.34;5050011;28;20056;-86
2022/06/16 09:20:01;;;;;;;3.08;1.10;;;;;;;23.54;81.14;101418.66;5043941;28;20045;-86
2022/06/16 09:22:47;;;;;;;6.40;1.70;;;;;;;22.64;89.62;101384.81;5025375;28;20517;-86
2022/06/16 09:25:25;;;;;;;9.07;1.83;;;;;;;22.68;97.75;101424.50;5049121;28;20139;-85
2022/06/16 09:27:58;;;;;;;7.95;1.80;;;;;;;23.46;91.01;101405.88;5049360;28;20045;-87
2022/06/16 09:30:32;;;;;;;4.97;1.52;;;;;;;23.22;96.89;101406.09;5067031;28;20063;-86
2022/06/16 09:33:12;;;;;;;5.90;1.42;;;;;;;24.37;84.43;101407.25;5051298;28;20712;-86
2022/06/16 09:35:57;;;;;;;4.55;1.40;;;;;;;24.57;83.55;101405.53;5047305;28;20049;-86
2022/06/16 09:38:32;;;;;;;6.43;2.10;;;;;;;24.86;80.44;101372.72;5040136;28;20053;-85
2022/06/16 09:42:32;;;;;;;4.68;1.35;;;;;;;24.85;80.90;101421.06;5050766;28;20060;-86
2022/06/16 09:43:57;;;;;;;4.72;1.60;;;;;;;24.60;80.64;101410.63;5046067;28;20059;-85
2022/06/16 09:46:35;;;;;;;5.63;1.50;;;;;;;25.18;78.79;101393.13;5067214;28;20056;-85
2022/06/16 09:49:10;;;;;;;5.22;1.48;;;;;;;25.10;76.64;101396.47;5050168;28;20128;-86
2022/06/16 09:51:44;;;;;;;5.95;1.42;;;;;;;24.96;78.35;101399.53;5049501;28;20064;-86
2022/06/16 09:54:20;;;;;;;3.85;1.30;;;;;;;25.18;79.56;101430.63;5049703;28;20080;-86
2022/06/16 09:57:13;;;;;;;4.63;1.30;;;;;;;25.13;80.46;101431.03;5049607;28;20047;-86
2022/06/16 09:59:59;;;;;;;3.47;1.10;;;;;;;24.93;82.96;101440.81;5051371;28;20541;-85
2022/06/16 10:02:35;;;;;;;3.50;1.10;;;;;;;24.75;81.05;101429.03;5066434;28;20057;-86
2022/06/16 10:05:05;;;;;;;1.67;0.90;;;;;;;24.55;81.58;101420.88;5050096;28;20060;-87
2022/06/16 10:07:47;;;;;;;3.28;0.80;;;;;;;24.83;77.11;101440.78;5051639;28;20407;-86
2022/06/16 10:10:35;;;;;;;3.38;0.95;;;;;;;24.41;78.29;101443.44;5047224;28;20053;-86
2022/06/16 10:13:25;;;;;;;2.80;0.82;;;;;;;23.64;84.06;101436.47;5043529;28;20049;-86
2022/06/16 10:16:05;;;;;;;3.78;1.13;;;;;;;23.79;85.66;101418.31;5050369;28;20079;-86
2022/06/16 10:18:33;;;;;;;2.65;0.90;;;;;;;23.29;87.94;101410.78;5051818;28;20076;-86
2022/06/16 10:21:01;;;;;;;1.95;0.77;;;;;;;23.46;88.73;101395.19;5058561;28;20053;-86
2022/06/16 10:23:34;;;;;;;5.93;0.90;;;;;;;23.24;88.28;101354.22;5076310;28;20052;-86
2022/06/16 10:26:06;;;;;;;1.33;0.73;;;;;;;23.54;88.63;101395.44;5050499;28;20505;-84
2022/06/16 10:28:48;;;;;;;2.35;0.90;;;;;;;23.47;93.54;101419.13;5050247;28;20056;-85
2022/06/16 10:31:37;;;;;;;4.70;1.10;;;;;;;23.11;95.66;101410.47;5049862;28;20049;-85
2022/06/16 10:34:15;;;;;;;3.83;1.00;;;;;;;23.90;90.24;101406.75;5050266;28;20355;-85
2022/06/16 10:36:49;;;;;;;3.78;1.17;;;;;;;23.42;92.59;101412.47;5043340;28;20175;-85
2022/06/16 10:39:34;;;;;;;5.38;0.90;;;;;;;23.44;92.89;101421.22;5051690;28;20107;-84
2022/06/16 10:42:39;;;;;;;4.43;1.00;;;;;;;23.37;91.86;101423.53;5050646;28;20063;-85
2022/06/16 10:45:28;;;;;;;7.47;1.77;;;;;;;23.74;92.14;101408.97;5049931;28;20045;-85
2022/06/16 10:48:02;;;;;;;5.38;1.20;;;;;;;23.89;92.56;101426.47;5048931;28;20053;-85
2022/06/16 10:50:42;;;;;;;4.93;0.90;;;;;;;24.06;90.77;101414.34;5049500;28;20056;-85
2022/06/16 10:53:30;;;;;;;4.22;1.10;;;;;;;23.51;93.09;101401.03;5049960;28;20047;-86
2022/06/16 10:56:15;;;;;;;5.88;1.58;;;;;;;23.52;92.09;101408.06;5065979;28;20049;-85
2022/06/16 10:59:17;;;;;;;5.28;1.40;;;;;;;23.27;97.55;101419.91;5046141;28;20136;-86
2022/06/16 11:01:56;;;;;;;6.15;1.85;;;;;;;23.56;100.00;101419.38;5047674;28;20053;-86
2022/06/16 11:04:33;;;;;;;7.13;1.90;;;;;;;23.15;100.00;101439.59;5052237;28;20450;-86
2022/06/16 11:07:01;;;;;;;10.98;1.80;;;;;;;22.45;100.00;101404.09;5047764;28;20064;-87
2022/06/16 11:09:30;;;;;;;6.80;1.77;;;;;;;22.57;100.00;101445.84;5048437;28;20055;-87
2022/06/16 11:12:12;;;;;;;9.00;2.33;;;;;;;22.37;100.00;101434.88;5038536;28;20059;-87
2022/06/16 11:14:55;;;;;;;7.30;2.13;;;;;;;22.42;100.00;101423.84;5047579;28;20041;-86
2022/06/16 11:17:36;;;;;;;;;;;;;;;23.55;98.99;101434.56;5070243;28;20394;-87
2022/06/16 11:20:06;;;;;;;7.55;2.10;;;;;;;23.27;100.00;101430.59;5050097;28;19921;-86
2022/06/16 11:22:38;;;;;;;7.38;2.10;;;;;;;22.83;100.00;101429.63;5053972;28;20053;-86
2022/06/16 11:25:16;;;;;;;7.90;2.70;;;;;;;22.53;100.00;101413.19;5046034;28;20087;-86
2022/06/16 11:27:49;;;;;;;8.45;2.45;;;;;;;22.10;100.00;101416.47;5041372;28;20056;-86
2022/06/16 11:30:34;;;;;;;;;;;;;;;22.22;100.00;101433.34;5052174;28;20044;-86
2022/06/16 11:33:01;;;;;;;7.47;2.08;;;;;;;22.11;100.00;101422.63;5043256;28;19927;-86
2022/06/16 11:35:49;;;;;;;11.45;2.58;;;;;;;22.09;100.00;101376.56;5053612;28;20045;-87
2022/06/16 11:38:23;;;;;;;9.73;2.45;;;;;;;22.23;100.00;101410.19;5053915;28;20055;-86
2022/06/16 11:41:00;;;;;;;8.88;2.30;;;;;;;22.63;100.00;101389.31;5045530;28;20091;-86
2022/06/16 11:43:34;;;;;;;9.38;2.22;;;;;;;23.18;100.00;101415.28;5054704;28;20049;-85
2022/06/16 11:46:24;;;;;;;9.05;2.70;;;;;;;21.95;100.00;101422.94;5047331;28;20690;-85
2022/06/16 11:49:06;;;;;;;9.30;2.40;;;;;;;22.47;100.00;101412.81;5042549;28;20396;-85
2022/06/16 11:51:45;;;;;;;12.27;3.20;;;;;;;22.08;100.00;101390.88;5052858;28;20072;-85
2022/06/16 11:54:40;;;;;;;10.50;3.22;;;;;;;21.66;100.00;101369.16;5052897;28;20051;-85
2022/06/16 11:57:12;;;;;;;8.00;3.03;;;;;;;21.38;100.00;101425.28;5041784;28;20124;-86
2022/06/16 11:59:46;;;;;;;9.70;2.90;;;;;;;21.35;100.00;101424.66;5049571;28;20100;-85